createdAt,value
2022-08-02T00:00:15.144Z,40.78
2022-08-02T00:02:43.797Z,41.01
2022-08-02T00:05:12.519Z,41.10
2022-08-02T00:07:41.286Z,40.57
2022-08-02T00:10:11.945Z,40.52
2022-08-02T00:12:39.602Z,40.62
2022-08-02T00:15:08.983Z,40.40
2022-08-02T00:17:36.615Z,41.14
2022-08-02T00:20:05.933Z,41.80
2022-08-02T00:22:36.126Z,42.24
2022-08-02T00:25:04.063Z,42.98
2022-08-02T00:27:31.454Z,42.82
2022-08-02T00:29:58.917Z,43.50
2022-08-02T00:32:26.447Z,43.88
2022-08-02T00:34:53.815Z,44.41
2022-08-02T00:37:21.205Z,44.46
2022-08-02T00:39:49.222Z,45.53
2022-08-02T00:42:16.636Z,46.14
2022-08-02T00:44:44.029Z,46.38
2022-08-02T00:47:11.410Z,46.54
2022-08-02T00:49:46.834Z,46.31
2022-08-02T00:52:14.696Z,45.77
2022-08-02T00:54:42.569Z,45.92
2022-08-02T00:57:10.052Z,46.29
2022-08-02T00:59:37.372Z,45.24
2022-08-02T01:02:04.871Z,45.47
2022-08-02T01:04:32.576Z,45.72
2022-08-02T01:07:12.495Z,45.56
2022-08-02T01:09:45.682Z,45.45
2022-08-02T01:12:13.704Z,44.97
2022-08-02T01:14:43.451Z,44.44
2022-08-02T01:17:16.302Z,44.54
2022-08-02T01:19:46.262Z,44.58
2022-08-02T01:22:16.379Z,44.76
2022-08-02T01:25:06.715Z,44.51
2022-08-02T01:27:40.355Z,44.74
2022-08-02T01:30:07.638Z,44.87
2022-08-02T01:32:41.963Z,45.09
2022-08-02T01:35:11.312Z,44.92
2022-08-02T01:37:44.489Z,44.95
2022-08-02T01:40:13.924Z,44.95
2022-08-02T01:42:51.571Z,44.48
2022-08-02T01:45:19.583Z,44.92
2022-08-02T01:47:47.673Z,44.54
2022-08-02T01:50:16.428Z,44.46
2022-08-02T01:52:53.530Z,44.50
2022-08-02T01:55:28.215Z,44.41
2022-08-02T01:58:04.112Z,44.08
2022-08-02T02:00:33.575Z,43.72
2022-08-02T02:03:02.789Z,43.68
2022-08-02T02:05:30.926Z,43.67
2022-08-02T02:08:00.024Z,44.17
2022-08-02T02:10:31.422Z,44.38
2022-08-02T02:13:01.458Z,44.80
2022-08-02T02:15:30.042Z,44.90
2022-08-02T02:18:13.253Z,45.17
2022-08-02T02:20:42.260Z,46.07
2022-08-02T02:23:09.810Z,46.73
2022-08-02T02:25:41.594Z,47.04
2022-08-02T02:28:28.867Z,48.12
2022-08-02T02:31:16.336Z,48.28
2022-08-02T02:33:46.959Z,48.49
2022-08-02T02:36:15.910Z,48.70
2022-08-02T02:38:44.227Z,49.17
2022-08-02T02:41:12.924Z,49.55
2022-08-02T02:43:41.252Z,49.98
2022-08-02T02:46:10.089Z,50.26
2022-08-02T02:48:38.251Z,50.90
2022-08-02T02:51:05.749Z,51.71
2022-08-02T02:54:33.394Z,52.00
2022-08-02T02:56:29.866Z,52.48
2022-08-02T02:58:57.319Z,52.94
2022-08-02T03:01:55.781Z,53.12
2022-08-02T03:04:21.677Z,53.72
2022-08-02T03:06:48.859Z,53.95
2022-08-02T03:09:16.115Z,54.39
2022-08-02T03:11:43.362Z,54.62
2022-08-02T03:14:11.567Z,54.82
2022-08-02T03:16:42.391Z,54.80
2022-08-02T03:19:09.522Z,54.64
2022-08-02T03:21:36.841Z,54.00
2022-08-02T03:24:04.219Z,54.24
2022-08-02T03:26:31.408Z,54.29
2022-08-02T03:28:58.575Z,53.55
2022-08-02T03:31:27.697Z,53.41
2022-08-02T03:34:01.245Z,52.98
2022-08-02T03:36:30.558Z,52.89
2022-08-02T03:38:58.005Z,52.03
2022-08-02T03:41:25.515Z,52.02
2022-08-02T03:43:52.894Z,52.62
2022-08-02T03:46:21.556Z,52.68
2022-08-02T03:48:49.664Z,52.73
2022-08-02T03:51:17.107Z,52.42
2022-08-02T03:53:44.902Z,52.42
2022-08-02T03:56:12.132Z,52.17
2022-08-02T03:58:39.182Z,51.74
2022-08-02T04:01:06.447Z,52.08
2022-08-02T04:03:33.619Z,52.44
2022-08-02T04:06:04.360Z,52.04
2022-08-02T04:08:37.651Z,52.81
2022-08-02T04:11:24.614Z,52.91
2022-08-02T04:13:52.133Z,52.58
2022-08-02T04:16:23.993Z,52.25
2022-08-02T04:18:56.600Z,52.27
2022-08-02T04:21:41.364Z,51.93
2022-08-02T04:24:18.685Z,52.31
2022-08-02T04:26:48.765Z,52.02
2022-08-02T04:29:18.138Z,51.55
2022-08-02T04:31:45.694Z,52.06
2022-08-02T04:34:15.407Z,51.59
2022-08-02T04:36:43.325Z,51.34
2022-08-02T04:39:10.749Z,51.99
2022-08-02T04:41:47.951Z,51.17
2022-08-02T04:44:15.250Z,52.10
2022-08-02T04:46:43.540Z,51.39
2022-08-02T04:49:10.955Z,50.83
2022-08-02T04:51:39.098Z,51.02
2022-08-02T04:54:09.634Z,51.63
2022-08-02T04:56:38.076Z,51.55
2022-08-02T04:59:05.738Z,51.99
2022-08-02T05:01:33.079Z,52.71
2022-08-02T05:04:00.205Z,52.91
2022-08-02T05:06:27.566Z,53.23
2022-08-02T05:08:54.700Z,53.33
2022-08-02T05:11:30.090Z,54.28
2022-08-02T05:14:03.571Z,53.49
2022-08-02T05:16:31.453Z,53.91
2022-08-02T05:18:59.799Z,55.12
2022-08-02T05:21:27.030Z,55.22
2022-08-02T05:23:54.234Z,55.70
2022-08-02T05:26:21.385Z,56.09
2022-08-02T05:28:48.517Z,56.88
2022-08-02T05:31:15.683Z,56.21
2022-08-02T05:33:42.908Z,55.84
2022-08-02T05:36:10.905Z,55.87
2022-08-02T05:38:39.017Z,55.77
2022-08-02T05:41:07.697Z,55.26
2022-08-02T05:43:35.031Z,54.48
2022-08-02T05:46:24.533Z,53.91
2022-08-02T05:48:56.044Z,54.43
2022-08-02T05:51:35.930Z,55.12
2022-08-02T05:54:09.199Z,56.39
2022-08-02T05:56:45.809Z,56.35
2022-08-02T05:59:16.009Z,65.29
2022-08-02T06:01:44.056Z,70.46
2022-08-02T06:04:16.093Z,74.90
2022-08-02T06:06:43.942Z,78.00
2022-08-02T06:09:15.951Z,77.45
2022-08-02T06:12:01.882Z,79.55
2022-08-02T06:14:33.999Z,82.22
2022-08-02T06:17:04.084Z,81.54
2022-08-02T06:19:31.964Z,81.58
2022-08-02T06:22:34.617Z,81.32
2022-08-02T06:25:04.753Z,82.83
2022-08-02T06:27:33.337Z,84.09
2022-08-02T06:30:01.991Z,83.46
2022-08-02T06:32:33.278Z,78.66
2022-08-02T06:35:01.001Z,75.28
2022-08-02T06:37:43.135Z,75.28
2022-08-02T06:40:19.109Z,74.59
2022-08-02T06:42:52.038Z,76.80
2022-08-02T06:45:19.289Z,77.64
2022-08-02T06:47:46.447Z,75.45
2022-08-02T06:50:15.168Z,76.27
2022-08-02T06:52:42.595Z,72.63
2022-08-02T06:55:10.161Z,72.73
2022-08-02T06:57:37.891Z,72.71
2022-08-02T07:00:09.191Z,70.83
2022-08-02T07:02:37.226Z,71.68
2022-08-02T07:05:05.065Z,71.88
2022-08-02T07:07:32.681Z,73.00
2022-08-02T07:10:01.865Z,74.58
2022-08-02T07:12:32.772Z,73.45
2022-08-02T07:15:01.339Z,74.49
2022-08-02T07:17:28.854Z,75.94
2022-08-02T07:19:56.164Z,74.82
2022-08-02T07:22:24.498Z,73.64
2022-08-02T07:24:51.826Z,74.92
2022-08-02T07:27:19.810Z,76.77
2022-08-02T07:29:47.585Z,82.71
2022-08-02T07:32:16.502Z,84.31
2022-08-02T07:34:50.533Z,81.64
2022-08-02T07:37:36.041Z,84.42
2022-08-02T07:40:14.056Z,85.33
2022-08-02T07:42:43.051Z,87.43
2022-08-02T07:45:10.834Z,87.43
2022-08-02T07:47:38.787Z,89.00
2022-08-02T07:50:06.966Z,87.31
2022-08-02T07:52:34.675Z,84.90
2022-08-02T07:55:01.874Z,84.95
2022-08-02T07:57:31.017Z,82.83
2022-08-02T07:59:58.177Z,81.38
2022-08-02T08:02:25.318Z,81.36
2022-08-02T08:04:52.797Z,83.72
2022-08-02T08:07:20.289Z,82.38
2022-08-02T08:09:50.772Z,81.50
2022-08-02T08:12:23.647Z,81.43
2022-08-02T08:14:50.806Z,80.53
2022-08-02T08:17:17.980Z,80.79
2022-08-02T08:19:51.246Z,78.97
2022-08-02T08:22:19.907Z,74.32
2022-08-02T08:24:48.275Z,68.96
2022-08-02T08:27:19.665Z,66.83
2022-08-02T08:29:46.869Z,66.47
2022-08-02T08:32:17.439Z,63.94
2022-08-02T08:34:45.851Z,63.63
2022-08-02T08:37:17.935Z,62.12
2022-08-02T08:39:56.201Z,62.76
2022-08-02T08:42:26.776Z,60.02
2022-08-02T08:44:57.732Z,60.94
2022-08-02T08:47:34.238Z,58.23
2022-08-02T08:50:06.156Z,57.17
2022-08-02T08:52:40.248Z,56.94
2022-08-02T08:55:08.974Z,56.29
2022-08-02T08:57:39.670Z,57.13
2022-08-02T09:00:07.121Z,58.70
2022-08-02T09:02:35.265Z,57.65
2022-08-02T09:05:02.375Z,57.55
2022-08-02T09:07:29.551Z,55.70
2022-08-02T09:09:56.642Z,58.59
2022-08-02T09:12:25.036Z,56.62
2022-08-02T09:14:53.788Z,55.53
2022-08-02T09:17:22.035Z,55.49
2022-08-02T09:20:05.701Z,52.45
2022-08-02T09:22:32.793Z,52.84
2022-08-02T09:24:59.834Z,52.31
2022-08-02T09:27:27.109Z,50.98
2022-08-02T09:30:11.614Z,50.67
2022-08-02T09:32:48.047Z,48.58
2022-08-02T09:35:31.141Z,48.94
2022-08-02T09:38:18.247Z,47.80
2022-08-02T09:40:45.691Z,48.35
2022-08-02T09:43:12.764Z,47.67
2022-08-02T09:45:40.220Z,47.97
2022-08-02T09:48:08.425Z,48.22
2022-08-02T09:50:41.287Z,47.61
2022-08-02T09:53:16.648Z,45.89
2022-08-02T09:55:43.845Z,45.75
2022-08-02T09:58:18.332Z,46.39
2022-08-02T10:00:55.676Z,45.79
2022-08-02T10:03:23.029Z,44.40
2022-08-02T10:06:02.323Z,46.27
2022-08-02T10:08:32.687Z,46.31
2022-08-02T10:11:01.113Z,45.07
2022-08-02T10:13:31.504Z,45.86
2022-08-02T10:16:00.374Z,45.82
2022-08-02T10:18:42.778Z,42.87
2022-08-02T10:21:14.468Z,42.75
2022-08-02T10:23:42.988Z,43.38
2022-08-02T10:26:13.054Z,42.97
2022-08-02T10:28:40.464Z,41.59
2022-08-02T10:31:09.906Z,42.89
2022-08-02T10:33:38.275Z,42.12
2022-08-02T10:36:07.685Z,41.67
2022-08-02T10:38:36.115Z,42.09
2022-08-02T10:41:03.931Z,42.92
2022-08-02T10:43:31.075Z,42.11
2022-08-02T10:46:16.630Z,41.71
2022-08-02T10:49:18.542Z,40.36
2022-08-02T10:51:58.182Z,41.59
2022-08-02T10:54:26.471Z,40.92
2022-08-02T10:56:55.426Z,40.33
2022-08-02T10:59:27.449Z,40.60
2022-08-02T11:02:02.106Z,40.11
2022-08-02T11:04:32.783Z,40.41
2022-08-02T11:07:17.218Z,39.71
2022-08-02T11:09:45.326Z,41.28
2022-08-02T11:12:16.645Z,40.61
2022-08-02T11:14:44.834Z,39.91
2022-08-02T11:17:16.546Z,40.55
2022-08-02T11:20:02.549Z,40.00
2022-08-02T11:22:29.773Z,39.49
2022-08-02T11:24:57.275Z,39.53
2022-08-02T11:27:26.344Z,38.21
2022-08-02T11:29:53.528Z,39.09
2022-08-02T11:32:31.324Z,38.21
2022-08-02T11:34:59.215Z,38.71
2022-08-02T11:37:29.315Z,38.59
2022-08-02T11:39:56.438Z,38.52
2022-08-02T11:42:31.570Z,38.07
2022-08-02T11:44:58.726Z,38.65
2022-08-02T11:47:25.990Z,37.14
2022-08-02T11:49:53.100Z,38.16
2022-08-02T11:52:20.197Z,38.34
2022-08-02T11:54:49.152Z,38.70
2022-08-02T11:57:20.196Z,37.56
2022-08-02T11:59:49.391Z,37.65
2022-08-02T12:02:19.473Z,36.98
2022-08-02T12:04:54.612Z,37.92
2022-08-02T12:07:36.564Z,37.59
2022-08-02T12:10:11.852Z,37.41
2022-08-02T12:12:51.910Z,36.75
2022-08-02T12:15:31.163Z,36.82
2022-08-02T12:18:17.561Z,37.27
2022-08-02T12:20:44.832Z,35.68
2022-08-02T12:23:11.970Z,35.75
2022-08-02T12:25:39.214Z,35.03
2022-08-02T12:28:17.505Z,36.33
2022-08-02T12:30:56.323Z,35.74
2022-08-02T12:33:24.637Z,36.29
2022-08-02T12:35:52.150Z,35.53
2022-08-02T12:38:19.499Z,34.54
2022-08-02T12:40:46.954Z,35.21
2022-08-02T12:43:22.197Z,35.72
2022-08-02T12:45:53.381Z,35.61
2022-08-02T12:48:37.530Z,36.86
2022-08-02T12:51:22.519Z,35.02
2022-08-02T12:53:59.627Z,35.52
2022-08-02T12:56:31.190Z,35.44
2022-08-02T12:58:58.580Z,34.36
2022-08-02T13:01:26.959Z,33.45
2022-08-02T13:04:10.058Z,34.31
2022-08-02T13:06:44.499Z,33.37
2022-08-02T13:09:14.608Z,34.42
2022-08-02T13:11:42.972Z,34.18
2022-08-02T13:14:11.338Z,32.86
2022-08-02T13:16:38.437Z,30.87
2022-08-02T13:19:05.655Z,30.89
2022-08-02T13:21:40.192Z,30.58
2022-08-02T13:24:27.398Z,29.47
2022-08-02T13:26:58.308Z,30.26
2022-08-02T13:29:25.726Z,29.48
2022-08-02T13:31:52.982Z,29.48
2022-08-02T13:34:20.180Z,30.85
2022-08-02T13:36:48.484Z,30.17
2022-08-02T13:39:15.673Z,31.18
2022-08-02T13:41:46.107Z,30.14
2022-08-02T13:44:15.853Z,31.58
2022-08-02T13:46:45.405Z,30.71
2022-08-02T13:49:18.579Z,31.83
2022-08-02T13:51:49.790Z,31.12
2022-08-02T13:54:17.939Z,30.25
2022-08-02T13:56:45.133Z,31.10
2022-08-02T13:59:55.828Z,31.64
2022-08-02T14:02:00.153Z,31.58
2022-08-02T14:04:27.701Z,31.47
2022-08-02T14:06:54.952Z,31.43
2022-08-02T14:09:26.366Z,31.26
2022-08-02T14:11:53.735Z,30.89
2022-08-02T14:14:20.930Z,31.21
2022-08-02T14:16:48.280Z,31.11
2022-08-02T14:19:17.053Z,31.51
2022-08-02T14:21:47.008Z,31.19
2022-08-02T14:24:18.470Z,31.38
2022-08-02T14:26:46.028Z,31.31
2022-08-02T14:29:13.962Z,30.46
2022-08-02T14:31:45.111Z,30.91
2022-08-02T14:34:13.232Z,31.61
2022-08-02T14:36:40.390Z,31.05
2022-08-02T14:39:07.509Z,31.39
2022-08-02T14:41:58.459Z,31.92
2022-08-02T14:44:23.742Z,32.20
2022-08-02T14:46:51.307Z,31.35
2022-08-02T14:49:25.561Z,31.68
2022-08-02T14:51:54.227Z,31.79
2022-08-02T14:54:27.791Z,31.52
2022-08-02T14:56:58.013Z,31.80
2022-08-02T14:59:25.428Z,32.53
2022-08-02T15:01:52.830Z,32.51
2022-08-02T15:04:20.526Z,33.23
2022-08-02T15:06:47.731Z,33.13
2022-08-02T15:09:14.813Z,32.31
2022-08-02T15:11:47.045Z,32.58
2022-08-02T15:14:20.294Z,33.23
2022-08-02T15:16:57.469Z,32.92
2022-08-02T15:19:56.591Z,33.33
2022-08-02T15:22:19.725Z,33.11
2022-08-02T15:24:50.190Z,33.61
2022-08-02T15:27:17.933Z,34.27
2022-08-02T15:29:48.696Z,34.02
2022-08-02T15:32:19.907Z,33.70
2022-08-02T15:34:47.545Z,34.06
2022-08-02T15:37:14.870Z,34.16
2022-08-02T15:39:42.013Z,34.54
2022-08-02T15:42:09.209Z,33.29
2022-08-02T15:44:36.426Z,33.93
2022-08-02T15:47:06.040Z,33.37
2022-08-02T15:49:40.690Z,33.99
2022-08-02T15:52:09.597Z,34.38
2022-08-02T15:54:36.789Z,35.19
2022-08-02T15:57:04.133Z,34.17
2022-08-02T15:59:31.236Z,34.21
2022-08-02T16:01:58.442Z,34.12
2022-08-02T16:04:25.717Z,33.83
2022-08-02T16:06:52.908Z,34.19
2022-08-02T16:09:20.090Z,34.16
2022-08-02T16:11:47.246Z,34.32
2022-08-02T16:14:14.346Z,34.57
2022-08-02T16:16:41.473Z,34.28
2022-08-02T16:19:46.389Z,33.66
2022-08-02T16:21:56.336Z,34.54
2022-08-02T16:24:23.502Z,35.44
2022-08-02T16:26:50.629Z,34.79
2022-08-02T16:29:19.696Z,34.78
2022-08-02T16:31:47.424Z,35.13
2022-08-02T16:34:14.920Z,34.75
2022-08-02T16:36:42.058Z,34.90
2022-08-02T16:39:09.193Z,34.81
2022-08-02T16:41:51.318Z,34.88
2022-08-02T16:44:29.051Z,34.46
2022-08-02T16:47:01.205Z,35.00
2022-08-02T16:50:05.451Z,35.39
2022-08-02T16:52:16.831Z,35.06
2022-08-02T16:54:49.388Z,34.89
2022-08-02T16:57:20.343Z,35.11
2022-08-02T16:59:58.015Z,34.77
2022-08-02T17:02:26.263Z,35.03
2022-08-02T17:04:53.406Z,34.71
2022-08-02T17:08:08.431Z,35.61
2022-08-02T17:10:10.499Z,35.17
2022-08-02T17:12:38.050Z,35.73
2022-08-02T17:16:01.403Z,35.08
2022-08-02T17:17:54.127Z,34.70
2022-08-02T17:20:25.254Z,35.43
2022-08-02T17:22:53.054Z,35.43
2022-08-02T17:25:22.687Z,35.41
2022-08-02T17:27:55.470Z,34.89
2022-08-02T17:30:27.040Z,34.62
2022-08-02T17:32:54.590Z,35.03
2022-08-02T17:35:25.103Z,35.02
2022-08-02T17:40:39.282Z,34.87
2022-08-02T17:43:14.317Z,34.70
2022-08-02T17:45:59.962Z,34.83
2022-08-02T17:48:49.684Z,34.88
2022-08-02T17:51:33.040Z,35.03
2022-08-02T17:54:04.608Z,35.22
2022-08-02T17:56:33.496Z,35.68
2022-08-02T17:59:22.352Z,36.50
2022-08-02T18:02:01.182Z,35.75
2022-08-02T18:04:31.436Z,35.90
2022-08-02T18:07:03.875Z,36.16
2022-08-02T18:09:31.903Z,36.92
2022-08-02T18:11:59.082Z,36.92
2022-08-02T18:14:26.727Z,36.54
2022-08-02T18:16:55.827Z,37.26
2022-08-02T18:19:22.957Z,36.30
2022-08-02T18:22:02.409Z,36.84
2022-08-02T18:24:30.085Z,37.11
2022-08-02T18:26:58.614Z,37.06
2022-08-02T18:29:30.039Z,37.84
2022-08-02T18:32:05.797Z,38.47
2022-08-02T18:34:47.609Z,38.43
2022-08-02T18:37:15.042Z,38.67
2022-08-02T18:42:32.171Z,39.14
2022-08-02T18:44:59.279Z,38.40
2022-08-02T18:47:32.907Z,38.80
2022-08-02T18:50:00.395Z,39.52
2022-08-02T18:52:31.534Z,39.13
2022-08-02T18:54:59.162Z,40.44
2022-08-02T19:00:13.762Z,39.66
2022-08-02T19:02:41.833Z,40.23
2022-08-02T19:05:14.265Z,40.91
2022-08-02T19:07:50.304Z,40.66
2022-08-02T19:10:18.701Z,40.65
2022-08-02T19:12:51.507Z,41.62
2022-08-02T19:15:18.928Z,41.58
2022-08-02T19:17:55.068Z,41.77
2022-08-02T19:20:25.753Z,40.92
2022-08-02T19:22:53.819Z,41.27
2022-08-02T19:25:21.621Z,41.01
2022-08-02T19:27:55.210Z,41.68
2022-08-02T19:30:22.597Z,41.61
2022-08-02T19:32:59.611Z,41.24
2022-08-02T19:35:30.657Z,42.47
2022-08-02T19:38:06.394Z,43.61
2022-08-02T19:40:33.506Z,43.88
2022-08-02T19:44:26.858Z,42.86
2022-08-02T19:45:51.588Z,42.20
2022-08-02T19:48:23.676Z,41.89
2022-08-02T19:50:53.650Z,42.25
2022-08-02T19:53:28.868Z,43.64
2022-08-02T19:56:00.260Z,43.45
2022-08-02T19:58:29.230Z,43.21
2022-08-02T20:00:58.977Z,43.60
2022-08-02T20:03:50.746Z,43.64
2022-08-02T20:06:15.505Z,44.14
2022-08-02T20:08:53.200Z,43.59
2022-08-02T20:11:34.958Z,44.96
2022-08-02T20:14:03.724Z,43.86
2022-08-02T20:16:32.877Z,43.92
2022-08-02T20:19:00.884Z,43.68
2022-08-02T20:21:35.652Z,44.19
2022-08-02T20:24:09.280Z,43.85
2022-08-02T20:26:47.988Z,43.88
2022-08-02T20:29:17.666Z,43.86
2022-08-02T20:32:04.236Z,44.66
2022-08-02T20:34:32.207Z,44.42
2022-08-02T20:37:56.126Z,44.55
2022-08-02T20:39:48.019Z,44.53
2022-08-02T20:42:23.452Z,44.70
2022-08-02T20:47:42.454Z,45.46
2022-08-02T20:50:32.164Z,45.42
2022-08-02T20:53:00.266Z,46.39
2022-08-02T20:55:27.919Z,45.40
2022-08-02T20:58:00.872Z,45.73
2022-08-02T21:00:28.922Z,45.78
2022-08-02T21:02:56.068Z,46.06
2022-08-02T21:05:43.286Z,46.28
2022-08-02T21:08:13.745Z,45.88
2022-08-02T21:10:43.590Z,46.53
2022-08-02T21:13:19.024Z,46.12
2022-08-02T21:15:51.618Z,45.96
2022-08-02T21:18:24.164Z,46.40
2022-08-02T21:21:01.788Z,46.47
2022-08-02T21:23:29.301Z,46.05
2022-08-02T21:25:57.978Z,46.37
2022-08-02T21:28:43.622Z,46.35
2022-08-02T21:31:13.539Z,46.04
2022-08-02T21:33:57.919Z,46.25
2022-08-02T21:36:30.848Z,47.10
2022-08-02T21:38:59.283Z,46.97
2022-08-02T21:41:38.899Z,47.09
2022-08-02T21:44:13.820Z,46.80
2022-08-02T21:46:48.884Z,47.46
2022-08-02T21:49:20.727Z,47.41
2022-08-02T21:51:49.177Z,47.60
2022-08-02T21:54:21.531Z,47.46
2022-08-02T21:56:49.985Z,47.83
2022-08-02T21:59:25.611Z,48.56
2022-08-02T22:04:47.920Z,49.18
2022-08-02T22:07:23.701Z,49.33
2022-08-02T22:09:52.414Z,48.91
2022-08-02T22:12:20.277Z,49.13
2022-08-02T22:14:53.775Z,49.04
2022-08-02T22:17:51.001Z,48.40
2022-08-02T22:20:21.104Z,49.21
2022-08-02T22:22:53.406Z,48.78
2022-08-02T22:25:26.878Z,49.12
2022-08-02T22:28:37.850Z,49.50
2022-08-02T22:30:54.383Z,49.81
2022-08-02T22:33:46.627Z,50.10
2022-08-02T22:36:15.325Z,50.59
2022-08-02T22:38:44.487Z,50.25
2022-08-02T22:41:15.409Z,50.17
2022-08-02T22:43:43.089Z,49.72
2022-08-02T22:46:15.481Z,49.70
2022-08-02T22:48:44.704Z,51.03
2022-08-02T22:51:13.621Z,50.61
2022-08-02T22:53:41.823Z,50.95
2022-08-02T22:56:09.957Z,50.58
2022-08-02T22:58:39.405Z,34.73
2022-08-02T22:58:45.114Z,38.92
2022-08-02T22:58:46.368Z,39.89
2022-08-02T22:59:03.938Z,49.08
2022-08-02T22:59:05.858Z,44.35
2022-08-02T23:01:24.675Z,51.81
2022-08-02T23:03:51.806Z,51.38
2022-08-02T23:06:22.767Z,51.60
2022-08-02T23:08:50.163Z,51.75
2022-08-02T23:11:17.350Z,51.54
2022-08-02T23:13:44.470Z,51.18
2022-08-02T23:16:30.175Z,51.38
2022-08-02T23:19:15.913Z,51.50
2022-08-02T23:21:46.256Z,51.58
2022-08-02T23:24:30.432Z,50.72
2022-08-02T23:26:57.551Z,50.96
2022-08-02T23:29:24.806Z,50.64
2022-08-02T23:31:52.928Z,51.17
2022-08-02T23:34:20.083Z,51.70
2022-08-02T23:36:47.250Z,52.60
2022-08-02T23:39:14.366Z,52.15
2022-08-02T23:41:41.530Z,53.25
2022-08-02T23:44:14.063Z,52.92
2022-08-02T23:46:43.217Z,53.01
2022-08-02T23:49:12.013Z,53.42
2022-08-02T23:51:39.194Z,53.46
2022-08-02T23:54:07.129Z,53.50
2022-08-02T23:56:34.291Z,53.58
2022-08-02T23:59:01.532Z,53.51
